Time;durP1;ratioP1;P1;durP2;ratioP2;P2;SDS_P1;SDS_P2;PMS_P1;PMS_P2;Temp;Humidity;BMP_temperature;BMP_pressure;BME280_temperature;BME280_humidity;BME280_pressure;Samples;Min_cycle;Max_cycle;Signal;HPM_P1;HPM_P2
2021/06/06 00:01:14;;;;;;;0.00;0.00;;;;;;;;;;5053001;28;20756;-64
2021/06/06 00:03:42;;;;;;;0.00;0.00;;;;;;;;;;5046840;28;20285;-64
2021/06/06 00:06:10;;;;;;;0.00;0.00;;;;;;;;;;5048770;28;20676;-65
2021/06/06 00:08:37;;;;;;;1.60;0.23;;;;;;;;;;5042780;28;20191;-65
2021/06/06 00:11:08;;;;;;;2.93;0.47;;;;;;;;;;5046062;28;20340;-65
2021/06/06 00:13:38;;;;;;;5.83;1.07;;;;;;;;;;5049071;28;20754;-65
2021/06/06 00:16:05;;;;;;;0.00;0.00;;;;;;;;;;5044157;28;20183;-64
2021/06/06 00:18:32;;;;;;;6.20;1.27;;;;;;;;;;5049329;28;20301;-65
2021/06/06 00:20:59;;;;;;;0.10;0.10;;;;;;;;;;5048498;28;20237;-65
2021/06/06 00:23:25;;;;;;;6.53;2.57;;;;;;;;;;5055864;28;20231;-65
2021/06/06 00:25:53;;;;;;;1.67;1.20;;;;;;;;;;5043610;28;20186;-65
2021/06/06 00:28:20;;;;;;;0.00;0.00;;;;;;;;;;5035386;28;20734;-65
2021/06/06 00:30:46;;;;;;;0.13;0.13;;;;;;;;;;5037962;28;20296;-65
2021/06/06 00:33:13;;;;;;;0.00;0.00;;;;;;;;;;5042918;28;20482;-64
2021/06/06 00:35:40;;;;;;;1.20;1.00;;;;;;;;;;5047536;28;20431;-65
2021/06/06 00:38:07;;;;;;;0.10;0.10;;;;;;;;;;5048741;28;20261;-65
2021/06/06 00:40:38;;;;;;;4.10;0.57;;;;;;;;;;5042390;28;20582;-65
2021/06/06 00:43:06;;;;;;;0.57;0.57;;;;;;;;;;5046626;28;20671;-65
2021/06/06 00:45:34;;;;;;;0.20;0.20;;;;;;;;;;5046823;28;20587;-64
2021/06/06 00:48:00;;;;;;;0.00;0.00;;;;;;;;;;5048801;28;20743;-64
2021/06/06 00:50:35;;;;;;;4.93;3.13;;;;;;;;;;5054803;28;20540;-64
2021/06/06 00:53:03;;;;;;;1.17;1.13;;;;;;;;;;5048760;28;20190;-64
2021/06/06 00:55:31;;;;;;;1.60;0.53;;;;;;;;;;5032686;28;20341;-65
2021/06/06 00:58:00;;;;;;;0.17;0.17;;;;;;;;;;5042961;28;20262;-64
2021/06/06 01:00:30;;;;;;;0.00;0.00;;;;;;;;;;5050600;28;20217;-65
2021/06/06 01:02:58;;;;;;;0.37;0.07;;;;;;;;;;5058087;28;20232;-65
2021/06/06 01:05:48;;;;;;;0.43;0.30;;;;;;;;;;5058358;28;20190;-65
2021/06/06 01:08:20;;;;;;;0.00;0.00;;;;;;;;;;5053091;28;20281;-65
2021/06/06 01:10:49;;;;;;;1.43;1.33;;;;;;;;;;5047431;28;20853;-65
2021/06/06 01:13:18;;;;;;;0.30;0.30;;;;;;;;;;5045817;28;20182;-65
2021/06/06 01:15:48;;;;;;;2.93;0.47;;;;;;;;;;5044309;28;20183;-65
2021/06/06 01:18:23;;;;;;;0.77;0.10;;;;;;;;;;5044846;28;20316;-65
2021/06/06 01:21:10;;;;;;;1.50;0.20;;;;;;;;;;5041473;28;20200;-65
2021/06/06 01:23:50;;;;;;;0.93;0.57;;;;;;;;;;5047779;28;20202;-65
2021/06/06 01:26:25;;;;;;;1.13;0.90;;;;;;;;;;5049301;28;20384;-65
2021/06/06 01:29:00;;;;;;;0.00;0.00;;;;;;;;;;5051884;28;20178;-65
2021/06/06 01:31:30;;;;;;;0.03;0.03;;;;;;;;;;5051876;28;20212;-65
2021/06/06 01:33:59;;;;;;;0.00;0.00;;;;;;;;;;5024986;28;20507;-65
2021/06/06 01:36:32;;;;;;;6.10;2.23;;;;;;;;;;5023816;28;20961;-65
2021/06/06 01:39:00;;;;;;;0.00;0.00;;;;;;;;;;5040996;28;20183;-65
2021/06/06 01:41:35;;;;;;;2.50;0.47;;;;;;;;;;5031911;28;20195;-65
2021/06/06 01:44:03;;;;;;;0.50;0.50;;;;;;;;;;5058261;28;20224;-65
2021/06/06 01:46:35;;;;;;;0.00;0.00;;;;;;;;;;5051407;28;20182;-64
2021/06/06 01:49:03;;;;;;;0.00;0.00;;;;;;;;;;5045284;28;20249;-65
2021/06/06 01:51:32;;;;;;;0.00;0.00;;;;;;;;;;5044213;28;20746;-65
2021/06/06 01:53:59;;;;;;;0.23;0.10;;;;;;;;;;5041053;28;20739;-65
2021/06/06 01:56:31;;;;;;;0.10;0.10;;;;;;;;;;5024553;28;20301;-65
2021/06/06 01:59:00;;;;;;;2.87;0.20;;;;;;;;;;5028002;28;20618;-65
2021/06/06 02:01:28;;;;;;;0.23;0.10;;;;;;;;;;5051163;28;20186;-65
2021/06/06 02:03:56;;;;;;;0.00;0.00;;;;;;;;;;5051039;28;20182;-65
2021/06/06 02:06:26;;;;;;;0.00;0.00;;;;;;;;;;5053136;28;20185;-65
2021/06/06 02:08:54;;;;;;;1.40;0.20;;;;;;;;;;5041890;28;20683;-65
2021/06/06 02:11:25;;;;;;;3.53;0.77;;;;;;;;;;5046883;28;20719;-65
2021/06/06 02:13:54;;;;;;;0.10;0.10;;;;;;;;;;5045163;28;20557;-65
2021/06/06 02:16:23;;;;;;;3.97;0.43;;;;;;;;;;5047263;28;20206;-65
2021/06/06 02:18:50;;;;;;;0.30;0.30;;;;;;;;;;5038641;28;20190;-65
2021/06/06 02:21:18;;;;;;;0.00;0.00;;;;;;;;;;5051134;28;20853;-65
2021/06/06 02:23:45;;;;;;;0.00;0.00;;;;;;;;;;5054209;28;20264;-65
2021/06/06 02:26:16;;;;;;;0.00;0.00;;;;;;;;;;5017928;28;20190;-65
2021/06/06 02:28:48;;;;;;;1.17;0.40;;;;;;;;;;5047425;28;20574;-65
2021/06/06 02:31:14;;;;;;;0.00;0.00;;;;;;;;;;5050639;28;20210;-65
2021/06/06 02:33:45;;;;;;;0.00;0.00;;;;;;;;;;5053446;28;20556;-63
2021/06/06 02:36:12;;;;;;;0.00;0.00;;;;;;;;;;5046871;28;20185;-65
2021/06/06 02:38:49;;;;;;;0.00;0.00;;;;;;;;;;5050037;28;20358;-65
2021/06/06 02:41:18;;;;;;;0.47;0.47;;;;;;;;;;5045496;28;20191;-64
2021/06/06 02:43:55;;;;;;;0.13;0.13;;;;;;;;;;5034977;28;20184;-64
2021/06/06 02:46:23;;;;;;;0.00;0.00;;;;;;;;;;5033449;28;20174;-65
2021/06/06 02:48:52;;;;;;;0.00;0.00;;;;;;;;;;5045998;28;20277;-65
2021/06/06 02:51:20;;;;;;;3.13;0.80;;;;;;;;;;5054001;28;20214;-65
2021/06/06 02:54:07;;;;;;;0.00;0.00;;;;;;;;;;5051974;28;20756;-65
2021/06/06 02:56:47;;;;;;;0.00;0.00;;;;;;;;;;5058622;28;20194;-65
2021/06/06 02:59:40;;;;;;;5.37;0.40;;;;;;;;;;5048610;28;20678;-65
2021/06/06 03:02:09;;;;;;;0.00;0.00;;;;;;;;;;5046084;28;20713;-64
2021/06/06 03:04:38;;;;;;;0.47;0.47;;;;;;;;;;5048622;28;20265;-64
2021/06/06 03:07:09;;;;;;;0.00;0.00;;;;;;;;;;5042152;28;20187;-65
2021/06/06 03:09:35;;;;;;;1.43;0.33;;;;;;;;;;5054192;28;20377;-65
2021/06/06 03:12:04;;;;;;;0.00;0.00;;;;;;;;;;5041575;28;20184;-65
2021/06/06 03:14:32;;;;;;;0.00;0.00;;;;;;;;;;5043767;28;20193;-65
2021/06/06 03:17:00;;;;;;;0.10;0.10;;;;;;;;;;5042777;28;20552;-65
2021/06/06 14:24:11;;;;;;;0.00;0.00;;;;;;;;;;5093649;27;20558;-59
2021/06/06 14:26:38;;;;;;;3.10;0.40;;;;;;;;;;5093497;28;20204;-59
2021/06/06 14:29:09;;;;;;;0.00;0.00;;;;;;;;;;5093378;28;20702;-60
2021/06/06 14:31:36;;;;;;;1.03;0.77;;;;;;;;;;5093218;28;20557;-60
2021/06/06 14:34:03;;;;;;;0.57;0.57;;;;;;;;;;5093405;28;20190;-60
2021/06/06 14:36:29;;;;;;;0.10;0.10;;;;;;;;;;5087389;28;20359;-60
2021/06/06 14:38:58;;;;;;;0.57;0.10;;;;;;;;;;5091602;28;20266;-60
2021/06/06 14:41:26;;;;;;;0.10;0.10;;;;;;;;;;5093232;28;20188;-60
2021/06/06 14:43:53;;;;;;;0.10;0.10;;;;;;;;;;5093094;28;20929;-60
2021/06/06 14:46:21;;;;;;;0.30;0.30;;;;;;;;;;5092885;28;20177;-61
2021/06/06 14:48:48;;;;;;;0.30;0.30;;;;;;;;;;5092666;28;20251;-60
2021/06/06 14:51:15;;;;;;;0.00;0.00;;;;;;;;;;5093331;28;20177;-60
2021/06/06 14:53:44;;;;;;;0.47;0.20;;;;;;;;;;5093570;28;20603;-59
2021/06/06 14:56:12;;;;;;;0.77;0.43;;;;;;;;;;5086339;28;20196;-59
2021/06/06 14:58:39;;;;;;;0.67;0.30;;;;;;;;;;5092367;28;20206;-59
2021/06/06 15:01:09;;;;;;;1.40;0.20;;;;;;;;;;5089645;28;20177;-59
2021/06/06 15:03:36;;;;;;;7.63;6.90;;;;;;;;;;5090148;28;20609;-60
2021/06/06 15:06:02;;;;;;;0.40;0.33;;;;;;;;;;5089124;28;20816;-58
2021/06/06 15:08:29;;;;;;;4.13;2.73;;;;;;;;;;5092714;28;20189;-59
2021/06/06 15:10:58;;;;;;;0.10;0.10;;;;;;;;;;5090212;28;20666;-59
2021/06/06 15:13:25;;;;;;;0.07;0.07;;;;;;;;;;5090821;28;20185;-59
2021/06/06 15:15:52;;;;;;;0.70;0.33;;;;;;;;;;5093803;28;20242;-59
2021/06/06 15:18:21;;;;;;;0.30;0.30;;;;;;;;;;5092552;28;20192;-58
2021/06/06 15:20:48;;;;;;;3.10;0.27;;;;;;;;;;5092691;28;20602;-58
2021/06/06 15:23:15;;;;;;;1.70;0.30;;;;;;;;;;5092823;28;20236;-59
2021/06/06 15:25:43;;;;;;;0.50;0.50;;;;;;;;;;5091891;28;20188;-60
2021/06/06 15:28:14;;;;;;;1.40;0.20;;;;;;;;;;5090638;28;20185;-61
2021/06/06 15:30:41;;;;;;;0.07;0.07;;;;;;;;;;5091693;28;20185;-60
2021/06/06 15:33:09;;;;;;;0.10;0.10;;;;;;;;;;5092561;28;20553;-62
2021/06/06 15:35:36;;;;;;;0.20;0.10;;;;;;;;;;5077914;28;20180;-59
2021/06/06 15:38:03;;;;;;;0.73;0.43;;;;;;;;;;5078185;28;20186;-61
2021/06/06 15:40:33;;;;;;;0.53;0.53;;;;;;;;;;5077614;28;20189;-61
2021/06/06 15:42:59;;;;;;;0.27;0.20;;;;;;;;;;5077730;28;20232;-62
2021/06/06 15:45:26;;;;;;;1.40;0.47;;;;;;;;;;5077604;28;20485;-61
2021/06/06 15:47:52;;;;;;;8.90;1.43;;;;;;;;;;5074557;28;20463;-61
2021/06/06 15:50:21;;;;;;;0.20;0.20;;;;;;;;;;5075415;28;20227;-61
2021/06/06 15:52:48;;;;;;;3.53;1.77;;;;;;;;;;5074913;28;20564;-62
2021/06/06 15:55:17;;;;;;;3.83;0.90;;;;;;;;;;5075997;28;20285;-61
2021/06/06 15:57:44;;;;;;;1.83;0.80;;;;;;;;;;5076737;28;20189;-62
2021/06/06 16:00:13;;;;;;;0.00;0.00;;;;;;;;;;5075876;28;20181;-62
2021/06/06 16:02:39;;;;;;;1.90;0.93;;;;;;;;;;5078479;28;20452;-62
2021/06/06 16:05:06;;;;;;;0.00;0.00;;;;;;;;;;5076827;28;20178;-62
2021/06/06 16:07:36;;;;;;;3.93;0.73;;;;;;;;;;5078999;28;20266;-61
2021/06/06 16:10:08;;;;;;;0.30;0.30;;;;;;;;;;5080096;28;20219;-61
2021/06/06 16:12:37;;;;;;;1.73;1.63;;;;;;;;;;5079629;28;20175;-61
2021/06/06 16:15:05;;;;;;;3.33;0.90;;;;;;;;;;5079858;28;20205;-62
2021/06/06 16:17:32;;;;;;;1.80;1.20;;;;;;;;;;5074685;28;20601;-61
2021/06/06 16:20:08;;;;;;;3.50;0.83;;;;;;;;;;5078918;28;20711;-61
2021/06/06 16:22:35;;;;;;;5.10;0.60;;;;;;;;;;5076805;28;20718;-60
2021/06/06 16:25:02;;;;;;;0.50;0.20;;;;;;;;;;5075749;28;20210;-61
2021/06/06 16:27:28;;;;;;;1.30;0.20;;;;;;;;;;5072345;28;20277;-61
2021/06/06 16:29:55;;;;;;;1.40;0.40;;;;;;;;;;5076396;28;20185;-62
2021/06/06 16:32:21;;;;;;;0.33;0.27;;;;;;;;;;5074828;28;20183;-60
2021/06/06 16:34:48;;;;;;;3.40;0.73;;;;;;;;;;5075980;28;20282;-61
2021/06/06 16:37:14;;;;;;;0.57;0.43;;;;;;;;;;5072269;28;20182;-63
2021/06/06 16:39:41;;;;;;;7.13;2.00;;;;;;;;;;5068803;28;20190;-62
2021/06/06 16:42:09;;;;;;;0.10;0.10;;;;;;;;;;5076673;28;20871;-63
2021/06/06 16:44:36;;;;;;;0.30;0.30;;;;;;;;;;5078320;28;20675;-63
2021/06/06 16:47:03;;;;;;;0.13;0.13;;;;;;;;;;5074866;28;20286;-63
2021/06/06 16:49:29;;;;;;;3.47;0.63;;;;;;;;;;5070837;28;20628;-63
2021/06/06 16:51:56;;;;;;;1.83;0.83;;;;;;;;;;5072035;28;20192;-64
2021/06/06 16:54:22;;;;;;;0.73;0.43;;;;;;;;;;5075585;28;20709;-63
2021/06/06 16:56:49;;;;;;;0.20;0.17;;;;;;;;;;5076947;28;20182;-66
2021/06/06 16:59:15;;;;;;;0.37;0.37;;;;;;;;;;5075654;28;20204;-64
2021/06/06 17:01:42;;;;;;;1.53;0.50;;;;;;;;;;5077694;28;21092;-65
2021/06/06 17:04:08;;;;;;;0.43;0.43;;;;;;;;;;5077350;28;20535;-65
2021/06/06 17:06:36;;;;;;;0.77;0.60;;;;;;;;;;5076423;28;20277;-65
2021/06/06 17:09:04;;;;;;;4.80;0.87;;;;;;;;;;5076885;28;20182;-65
2021/06/06 17:11:32;;;;;;;2.03;0.73;;;;;;;;;;5076850;28;20209;-65
2021/06/06 17:14:01;;;;;;;10.47;1.37;;;;;;;;;;5076618;28;20201;-65
2021/06/06 17:16:30;;;;;;;0.47;0.47;;;;;;;;;;5076416;28;20189;-65
2021/06/06 17:18:57;;;;;;;3.13;0.83;;;;;;;;;;5077124;28;20180;-65
2021/06/06 17:21:26;;;;;;;0.40;0.30;;;;;;;;;;5076051;28;20309;-65
2021/06/06 17:23:54;;;;;;;0.23;0.23;;;;;;;;;;5076503;28;20241;-65
2021/06/06 17:26:23;;;;;;;0.60;0.40;;;;;;;;;;5071863;28;20183;-65
2021/06/06 17:28:50;;;;;;;0.03;0.03;;;;;;;;;;5076290;28;20181;-64
2021/06/06 17:31:17;;;;;;;4.70;2.10;;;;;;;;;;5076883;28;20434;-64
2021/06/06 17:33:44;;;;;;;0.47;0.40;;;;;;;;;;5076894;28;20210;-65
2021/06/06 17:36:11;;;;;;;2.80;1.93;;;;;;;;;;5076788;28;20182;-65
2021/06/06 17:38:37;;;;;;;0.03;0.03;;;;;;;;;;5076707;28;20259;-65
2021/06/06 17:41:04;;;;;;;0.20;0.20;;;;;;;;;;5077274;28;20187;-65
2021/06/06 17:43:34;;;;;;;4.63;0.60;;;;;;;;;;5073050;28;20206;-65
2021/06/06 17:46:01;;;;;;;0.90;0.53;;;;;;;;;;5075427;28;20694;-63
2021/06/06 17:48:28;;;;;;;0.77;0.47;;;;;;;;;;5077235;28;20178;-65
2021/06/06 17:50:56;;;;;;;2.63;0.53;;;;;;;;;;5075815;28;20184;-65
2021/06/06 17:53:23;;;;;;;0.33;0.33;;;;;;;;;;5076210;28;20179;-62
2021/06/06 17:55:52;;;;;;;0.00;0.00;;;;;;;;;;5075486;28;20270;-65
2021/06/06 17:58:39;;;;;;;0.00;0.00;;;;;;;;;;5076622;28;20234;-65
2021/06/06 18:01:08;;;;;;;0.00;0.00;;;;;;;;;;5071922;28;20185;-65
2021/06/06 18:03:35;;;;;;;0.83;0.73;;;;;;;;;;5076613;28;20282;-62
2021/06/06 18:06:01;;;;;;;0.93;0.90;;;;;;;;;;5076857;28;20178;-65
2021/06/06 18:08:28;;;;;;;0.00;0.00;;;;;;;;;;5076459;28;20243;-65
2021/06/06 18:10:56;;;;;;;2.20;1.07;;;;;;;;;;5076784;28;20185;-65
2021/06/06 18:13:26;;;;;;;0.50;0.40;;;;;;;;;;5077330;28;20178;-64
2021/06/06 18:15:56;;;;;;;0.57;0.23;;;;;;;;;;5070354;28;20182;-65
2021/06/06 18:18:22;;;;;;;0.40;0.30;;;;;;;;;;5077504;28;20189;-64
2021/06/06 18:20:49;;;;;;;0.27;0.27;;;;;;;;;;5076896;28;20185;-64
2021/06/06 18:23:16;;;;;;;0.00;0.00;;;;;;;;;;5069661;28;20238;-64
2021/06/06 18:25:44;;;;;;;0.00;0.00;;;;;;;;;;5075001;28;20379;-63
2021/06/06 18:28:11;;;;;;;0.77;0.73;;;;;;;;;;5073535;28;20184;-62
2021/06/06 18:30:39;;;;;;;1.13;1.00;;;;;;;;;;5064400;28;20170;-61
2021/06/06 18:33:05;;;;;;;5.47;0.87;;;;;;;;;;5066273;28;20220;-60
2021/06/06 18:35:32;;;;;;;4.60;0.30;;;;;;;;;;5079545;28;20183;-62
2021/06/06 18:37:59;;;;;;;0.30;0.17;;;;;;;;;;5076425;28;20190;-59
2021/06/06 18:40:29;;;;;;;5.93;0.10;;;;;;;;;;5067662;28;20206;-60
2021/06/06 18:42:59;;;;;;;4.50;0.33;;;;;;;;;;5073192;28;20670;-61
2021/06/06 18:45:27;;;;;;;2.20;0.67;;;;;;;;;;5071909;28;20174;-58
2021/06/06 18:47:54;;;;;;;0.10;0.10;;;;;;;;;;5066887;28;20227;-59
2021/06/06 18:50:22;;;;;;;6.90;0.63;;;;;;;;;;5067919;28;20197;-60
2021/06/06 18:52:49;;;;;;;4.53;0.43;;;;;;;;;;5068980;28;20248;-59
2021/06/06 18:55:17;;;;;;;1.60;0.83;;;;;;;;;;5070893;28;20268;-59
2021/06/06 18:57:44;;;;;;;0.53;0.27;;;;;;;;;;5070824;28;20635;-59
2021/06/06 19:00:17;;;;;;;0.13;0.13;;;;;;;;;;5072716;28;20375;-59
2021/06/06 19:02:44;;;;;;;0.57;0.30;;;;;;;;;;5071324;28;20262;-60
2021/06/06 19:05:12;;;;;;;0.57;0.57;;;;;;;;;;5072220;28;20267;-61
2021/06/06 19:07:39;;;;;;;1.50;0.30;;;;;;;;;;5063508;28;20491;-61
2021/06/06 19:10:06;;;;;;;1.37;1.07;;;;;;;;;;5075985;28;20182;-62
2021/06/06 19:12:33;;;;;;;4.00;1.03;;;;;;;;;;5077605;28;20611;-61
2021/06/06 19:15:01;;;;;;;5.60;1.27;;;;;;;;;;5078081;28;20180;-62
2021/06/06 19:17:28;;;;;;;0.10;0.10;;;;;;;;;;5077210;28;20322;-62
2021/06/06 19:19:55;;;;;;;7.17;1.27;;;;;;;;;;5076528;28;20610;-61
2021/06/06 19:22:23;;;;;;;1.37;0.30;;;;;;;;;;5079620;28;20221;-61
2021/06/06 19:24:51;;;;;;;1.80;0.40;;;;;;;;;;5080797;28;20209;-61
2021/06/06 19:27:18;;;;;;;0.63;0.63;;;;;;;;;;5082443;28;20836;-60
2021/06/06 19:29:46;;;;;;;2.63;1.20;;;;;;;;;;5079241;28;20182;-61
2021/06/06 19:32:14;;;;;;;1.07;0.97;;;;;;;;;;5075925;28;20470;-62
2021/06/06 19:34:41;;;;;;;0.40;0.37;;;;;;;;;;5077178;28;20233;-61
2021/06/06 19:37:09;;;;;;;5.73;5.07;;;;;;;;;;5079462;28;20185;-61
2021/06/06 19:39:39;;;;;;;0.23;0.20;;;;;;;;;;5078949;28;20235;-61
2021/06/06 19:42:07;;;;;;;1.63;1.13;;;;;;;;;;5080668;28;20186;-60
2021/06/06 19:44:34;;;;;;;0.00;0.00;;;;;;;;;;5081360;28;21058;-61
2021/06/06 19:47:07;;;;;;;0.10;0.10;;;;;;;;;;5079363;28;20666;-65
2021/06/06 19:49:35;;;;;;;2.17;0.63;;;;;;;;;;5077863;28;20170;-63
2021/06/06 19:52:01;;;;;;;2.00;0.77;;;;;;;;;;5078347;28;20214;-61
2021/06/06 19:54:28;;;;;;;2.10;1.17;;;;;;;;;;5078744;28;20285;-61
2021/06/06 19:56:55;;;;;;;1.90;1.33;;;;;;;;;;5078864;28;20659;-61
2021/06/06 19:59:21;;;;;;;1.33;0.53;;;;;;;;;;5078474;28;20175;-61
2021/06/06 20:01:48;;;;;;;0.77;0.77;;;;;;;;;;5076739;28;20178;-61
2021/06/06 20:04:14;;;;;;;3.00;0.77;;;;;;;;;;5076990;28;20198;-61
2021/06/06 20:06:41;;;;;;;5.70;1.53;;;;;;;;;;5076294;28;20616;-61
2021/06/06 20:09:09;;;;;;;0.37;0.30;;;;;;;;;;5078054;28;20202;-61
2021/06/06 20:11:40;;;;;;;1.73;0.60;;;;;;;;;;5076580;28;20177;-62
2021/06/06 20:14:07;;;;;;;0.20;0.20;;;;;;;;;;5077356;28;20184;-62
2021/06/06 20:16:34;;;;;;;0.20;0.10;;;;;;;;;;5075679;28;20182;-61
2021/06/06 20:19:00;;;;;;;0.30;0.20;;;;;;;;;;5077798;28;20173;-62
2021/06/06 20:21:30;;;;;;;1.50;0.40;;;;;;;;;;5077416;28;20842;-61
2021/06/06 20:23:57;;;;;;;0.87;0.87;;;;;;;;;;5079176;28;20229;-61
2021/06/06 20:26:23;;;;;;;1.07;0.33;;;;;;;;;;5079821;28;20786;-61
2021/06/06 20:28:50;;;;;;;0.13;0.13;;;;;;;;;;5078107;28;20177;-61
2021/06/06 20:31:27;;;;;;;0.00;0.00;;;;;;;;;;5074168;28;20359;-62
2021/06/06 20:36:29;;;;;;;0.40;0.17;;;;;;;;;;5075351;28;20181;-61
2021/06/06 20:38:56;;;;;;;0.00;0.00;;;;;;;;;;5063655;28;20174;-62
2021/06/06 20:41:24;;;;;;;0.80;0.60;;;;;;;;;;5072023;28;20193;-62
2021/06/06 20:43:51;;;;;;;13.20;1.60;;;;;;;;;;5071066;28;20286;-62
2021/06/06 20:46:18;;;;;;;0.00;0.00;;;;;;;;;;5072022;28;20174;-62
2021/06/06 20:48:45;;;;;;;0.53;0.33;;;;;;;;;;5073310;28;20549;-61
2021/06/06 20:51:12;;;;;;;0.10;0.10;;;;;;;;;;5071249;28;20260;-62
2021/06/06 20:53:39;;;;;;;12.20;1.13;;;;;;;;;;5072318;28;20193;-62
2021/06/06 20:56:06;;;;;;;1.87;0.40;;;;;;;;;;5070923;28;20590;-62
2021/06/06 20:58:33;;;;;;;2.47;0.30;;;;;;;;;;5074336;28;20179;-61
2021/06/06 21:01:00;;;;;;;2.20;0.63;;;;;;;;;;5073455;28;20185;-61
2021/06/06 21:03:28;;;;;;;0.43;0.20;;;;;;;;;;5067807;28;20210;-62
2021/06/06 21:05:56;;;;;;;0.20;0.20;;;;;;;;;;5069441;28;20178;-61
2021/06/06 21:08:25;;;;;;;0.00;0.00;;;;;;;;;;5073280;28;20238;-61
2021/06/06 21:10:52;;;;;;;0.00;0.00;;;;;;;;;;5073772;28;20238;-62
2021/06/06 21:13:19;;;;;;;0.00;0.00;;;;;;;;;;5073622;28;20177;-61
2021/06/06 21:15:45;;;;;;;0.00;0.00;;;;;;;;;;5070517;28;20190;-61
2021/06/06 21:18:12;;;;;;;0.40;0.40;;;;;;;;;;5067230;28;20251;-61
2021/06/06 21:20:41;;;;;;;0.40;0.40;;;;;;;;;;5072201;28;20182;-62
2021/06/06 21:23:10;;;;;;;0.00;0.00;;;;;;;;;;5065922;28;20540;-61
2021/06/06 21:25:43;;;;;;;0.00;0.00;;;;;;;;;;5073426;28;20694;-62
2021/06/06 21:28:10;;;;;;;1.80;1.70;;;;;;;;;;5073217;28;20416;-61
2021/06/06 21:30:40;;;;;;;0.00;0.00;;;;;;;;;;5069637;28;20262;-61
2021/06/06 21:33:11;;;;;;;0.23;0.10;;;;;;;;;;5074291;28;20238;-61
2021/06/06 21:35:38;;;;;;;0.10;0.10;;;;;;;;;;5068329;28;20185;-61
2021/06/06 21:38:05;;;;;;;0.00;0.00;;;;;;;;;;5074484;28;20178;-61
2021/06/06 21:40:32;;;;;;;0.27;0.13;;;;;;;;;;5070770;28;20239;-62
2021/06/06 21:43:03;;;;;;;0.10;0.10;;;;;;;;;;5076203;28;20328;-62
2021/06/06 21:45:30;;;;;;;3.00;1.90;;;;;;;;;;5074906;28;20212;-61
2021/06/06 21:47:57;;;;;;;0.30;0.30;;;;;;;;;;5075121;28;20224;-61
2021/06/06 21:50:26;;;;;;;0.30;0.30;;;;;;;;;;5073810;28;20206;-61
2021/06/06 21:52:53;;;;;;;7.00;1.33;;;;;;;;;;5074887;28;20209;-62
2021/06/06 21:55:23;;;;;;;1.03;0.13;;;;;;;;;;5073361;28;20181;-61
2021/06/06 21:57:50;;;;;;;0.83;0.30;;;;;;;;;;5072979;28;20589;-61
2021/06/06 22:00:19;;;;;;;0.77;0.37;;;;;;;;;;5073348;28;20243;-61
2021/06/06 22:02:46;;;;;;;1.20;0.10;;;;;;;;;;5073662;28;20244;-61
2021/06/06 22:05:12;;;;;;;0.00;0.00;;;;;;;;;;5080757;28;20276;-61
2021/06/06 22:07:39;;;;;;;0.57;0.57;;;;;;;;;;5074549;28;20951;-62
2021/06/06 22:10:08;;;;;;;0.67;0.63;;;;;;;;;;5074677;28;20227;-63
2021/06/06 22:12:35;;;;;;;0.00;0.00;;;;;;;;;;5074958;28;20196;-62
2021/06/06 22:15:02;;;;;;;0.00;0.00;;;;;;;;;;5075327;28;20543;-62
2021/06/06 22:17:28;;;;;;;0.87;0.87;;;;;;;;;;5074197;28;20498;-61
2021/06/06 22:20:13;;;;;;;6.03;0.20;;;;;;;;;;5071574;28;20261;-62
2021/06/06 22:22:58;;;;;;;0.47;0.43;;;;;;;;;;5065568;28;20442;-62
2021/06/06 22:25:43;;;;;;;0.00;0.00;;;;;;;;;;5073146;28;20178;-62
2021/06/06 22:28:28;;;;;;;0.00;0.00;;;;;;;;;;5070616;28;20514;-63
2021/06/06 22:31:13;;;;;;;0.20;0.20;;;;;;;;;;5066420;28;20213;-62
2021/06/06 22:33:58;;;;;;;0.63;0.30;;;;;;;;;;5069916;28;20837;-63
2021/06/06 22:36:43;;;;;;;0.20;0.10;;;;;;;;;;5076626;28;20184;-62
2021/06/06 22:39:28;;;;;;;0.00;0.00;;;;;;;;;;5072871;28;20701;-63
2021/06/06 22:42:13;;;;;;;2.23;1.80;;;;;;;;;;5068770;28;20189;-63
2021/06/06 22:44:58;;;;;;;1.00;0.83;;;;;;;;;;5076564;28;20232;-63
2021/06/06 22:47:43;;;;;;;1.43;0.30;;;;;;;;;;5077989;28;20545;-63
2021/06/06 22:50:28;;;;;;;2.13;0.40;;;;;;;;;;5077381;28;20184;-63
2021/06/06 22:53:13;;;;;;;0.97;0.67;;;;;;;;;;5076919;28;20185;-63
2021/06/06 22:55:59;;;;;;;0.40;0.33;;;;;;;;;;5076570;28;20655;-63
2021/06/06 22:58:43;;;;;;;0.00;0.00;;;;;;;;;;5079088;28;20863;-63
2021/06/06 23:01:28;;;;;;;0.17;0.17;;;;;;;;;;5074508;28;20241;-64
2021/06/06 23:04:13;;;;;;;1.30;0.90;;;;;;;;;;5078437;28;20298;-64
2021/06/06 23:06:58;;;;;;;0.20;0.20;;;;;;;;;;5075964;28;20281;-63
2021/06/06 23:09:43;;;;;;;1.20;0.57;;;;;;;;;;5070326;28;20594;-63
2021/06/06 23:12:29;;;;;;;0.00;0.00;;;;;;;;;;5078421;28;20511;-63
2021/06/06 23:14:55;;;;;;;0.00;0.00;;;;;;;;;;5066144;28;21519;-61
2021/06/06 23:17:22;;;;;;;0.30;0.23;;;;;;;;;;5078706;28;20191;-61
2021/06/06 23:19:49;;;;;;;0.13;0.13;;;;;;;;;;5063159;28;20181;-60
2021/06/06 23:22:21;;;;;;;0.00;0.00;;;;;;;;;;5060938;28;20310;-60
2021/06/06 23:24:51;;;;;;;0.00;0.00;;;;;;;;;;5062837;28;20296;-60
2021/06/06 23:27:18;;;;;;;0.00;0.00;;;;;;;;;;5062376;28;20293;-60
2021/06/06 23:29:45;;;;;;;0.00;0.00;;;;;;;;;;5058033;28;20205;-60
2021/06/06 23:32:13;;;;;;;1.40;0.20;;;;;;;;;;5059439;28;20189;-61
2021/06/06 23:34:40;;;;;;;15.57;0.87;;;;;;;;;;5061902;28;20805;-60
2021/06/06 23:37:07;;;;;;;0.00;0.00;;;;;;;;;;5062882;28;20180;-60
2021/06/06 23:39:34;;;;;;;0.40;0.40;;;;;;;;;;5063451;28;20590;-60
2021/06/06 23:42:01;;;;;;;0.43;0.43;;;;;;;;;;5060974;28;20713;-60
2021/06/06 23:44:28;;;;;;;1.33;1.23;;;;;;;;;;5061614;28;20899;-60
2021/06/06 23:46:55;;;;;;;39.57;1.40;;;;;;;;;;5063653;28;20685;-61
2021/06/06 23:49:22;;;;;;;0.13;0.03;;;;;;;;;;5067836;28;20693;-60
2021/06/06 23:51:49;;;;;;;2.57;0.53;;;;;;;;;;5068295;28;20806;-60
2021/06/06 23:54:16;;;;;;;0.20;0.20;;;;;;;;;;5061323;28;20340;-60
2021/06/06 23:56:44;;;;;;;0.10;0.10;;;;;;;;;;5088347;28;20183;-60
2021/06/06 23:59:11;;;;;;;0.37;0.17;;;;;;;;;;5076049;28;20582;-61
